Time;durP1;ratioP1;P1;durP2;ratioP2;P2;SDS_P1;SDS_P2;PMS_P1;PMS_P2;Temp;Humidity;BMP_temperature;BMP_pressure;BME280_temperature;BME280_humidity;BME280_pressure;Samples;Min_cycle;Max_cycle;Signal;HPM_P1;HPM_P2
2024/01/20 00:01:40;;;;;;;14.73;7.20;;;;;;;;;;5011888;28;20040;-68
2024/01/20 00:04:06;;;;;;;22.33;8.23;;;;;;;;;;5010256;28;20034;-66
2024/01/20 00:06:32;;;;;;;17.03;7.57;;;;;;;;;;5010124;28;20448;-68
2024/01/20 00:08:58;;;;;;;17.57;8.57;;;;;;;;;;5010481;28;20453;-68
2024/01/20 00:11:24;;;;;;;22.17;7.67;;;;;;;;;;5011672;28;20108;-68
2024/01/20 00:13:50;;;;;;;21.00;7.50;;;;;;;;;;4993813;28;20065;-67
2024/01/20 00:16:15;;;;;;;20.10;8.30;;;;;;;;;;5011844;28;20053;-67
2024/01/20 00:18:42;;;;;;;14.93;7.50;;;;;;;;;;5010239;28;20310;-67
2024/01/20 00:21:09;;;;;;;16.10;7.20;;;;;;;;;;5010522;28;20474;-67
2024/01/20 00:23:37;;;;;;;16.37;8.77;;;;;;;;;;5011546;28;20041;-69
2024/01/20 00:26:03;;;;;;;13.80;7.30;;;;;;;;;;5026954;28;20037;-68
2024/01/20 00:28:29;;;;;;;17.97;8.60;;;;;;;;;;5010340;28;20033;-67
2024/01/20 00:30:55;;;;;;;18.13;8.43;;;;;;;;;;5011599;28;20080;-69
2024/01/20 00:33:20;;;;;;;16.40;8.33;;;;;;;;;;5027000;28;20041;-68
2024/01/20 00:35:47;;;;;;;16.43;7.07;;;;;;;;;;5012793;28;20028;-67
2024/01/20 00:38:13;;;;;;;20.00;8.77;;;;;;;;;;5010613;28;20040;-69
2024/01/20 00:40:39;;;;;;;13.57;6.73;;;;;;;;;;5011659;28;20079;-67
2024/01/20 00:43:05;;;;;;;14.90;7.23;;;;;;;;;;5010290;28;20069;-66
2024/01/20 00:45:31;;;;;;;11.20;6.30;;;;;;;;;;5026509;28;20029;-66
2024/01/20 00:47:56;;;;;;;15.90;7.00;;;;;;;;;;5026858;28;20037;-67
2024/01/20 00:50:23;;;;;;;14.53;7.27;;;;;;;;;;5011907;28;20037;-68
2024/01/20 00:52:49;;;;;;;16.70;6.77;;;;;;;;;;5027415;28;20119;-70
2024/01/20 00:55:15;;;;;;;11.80;6.67;;;;;;;;;;5011553;28;20030;-68
2024/01/20 00:57:41;;;;;;;11.90;6.80;;;;;;;;;;5013209;28;20050;-67
2024/01/20 01:00:09;;;;;;;15.73;6.47;;;;;;;;;;5011278;28;20530;-67
2024/01/20 01:02:39;;;;;;;16.53;7.17;;;;;;;;;;5010030;28;20033;-68
2024/01/20 01:05:06;;;;;;;14.17;6.60;;;;;;;;;;5011984;28;20057;-69
2024/01/20 01:07:35;;;;;;;12.93;5.80;;;;;;;;;;5010179;28;20038;-68
2024/01/20 01:10:06;;;;;;;14.03;6.17;;;;;;;;;;5010024;28;20400;-69
2024/01/20 01:12:33;;;;;;;17.17;7.37;;;;;;;;;;5010378;28;20060;-68
2024/01/20 01:14:59;;;;;;;14.37;6.70;;;;;;;;;;5010222;28;20079;-67
2024/01/20 01:17:25;;;;;;;16.50;6.47;;;;;;;;;;5010443;28;20030;-66
2024/01/20 01:19:51;;;;;;;12.03;5.60;;;;;;;;;;5009822;28;20041;-67
2024/01/20 01:22:17;;;;;;;9.97;5.50;;;;;;;;;;5009503;28;20025;-69
2024/01/20 01:24:43;;;;;;;14.97;5.67;;;;;;;;;;5009100;28;20034;-68
2024/01/20 01:27:09;;;;;;;10.90;4.90;;;;;;;;;;5025801;28;20068;-67
2024/01/20 01:29:35;;;;;;;9.23;5.07;;;;;;;;;;5025933;28;20057;-67
2024/01/20 01:32:02;;;;;;;12.83;5.57;;;;;;;;;;5009159;28;20029;-68
2024/01/20 01:34:28;;;;;;;8.10;4.77;;;;;;;;;;5008967;28;20057;-67
2024/01/20 01:36:53;;;;;;;8.37;4.10;;;;;;;;;;5011027;28;20068;-67
2024/01/20 01:39:21;;;;;;;9.10;5.20;;;;;;;;;;5009430;28;20104;-68
2024/01/20 01:41:46;;;;;;;15.90;4.67;;;;;;;;;;5022298;28;20065;-69
2024/01/20 01:44:12;;;;;;;10.60;5.17;;;;;;;;;;5028907;28;20414;-67
2024/01/20 01:46:39;;;;;;;9.67;4.40;;;;;;;;;;5029986;28;20482;-66
2024/01/20 01:49:07;;;;;;;9.33;5.37;;;;;;;;;;5028983;28;20041;-68
2024/01/20 01:51:33;;;;;;;14.97;5.23;;;;;;;;;;5029630;28;20037;-69
2024/01/20 01:54:02;;;;;;;9.17;4.87;;;;;;;;;;5028453;28;20033;-67
2024/01/20 01:56:32;;;;;;;7.00;4.50;;;;;;;;;;5029326;28;20029;-68
2024/01/20 01:58:58;;;;;;;9.87;4.30;;;;;;;;;;5028685;28;20041;-66
2024/01/20 02:01:24;;;;;;;10.13;4.27;;;;;;;;;;5028818;28;20036;-67
2024/01/20 02:03:50;;;;;;;10.60;4.93;;;;;;;;;;5029050;28;20417;-68
2024/01/20 02:06:20;;;;;;;9.90;5.03;;;;;;;;;;5029193;28;20354;-67
2024/01/20 02:08:47;;;;;;;9.27;4.47;;;;;;;;;;5028668;28;20029;-68
2024/01/20 02:11:15;;;;;;;8.47;4.70;;;;;;;;;;5030161;28;20034;-66
2024/01/20 02:13:42;;;;;;;9.13;4.27;;;;;;;;;;5028708;28;20049;-69
2024/01/20 02:16:08;;;;;;;11.57;4.93;;;;;;;;;;5012283;28;20034;-68
2024/01/20 02:18:35;;;;;;;8.27;4.50;;;;;;;;;;5028898;28;20211;-69
2024/01/20 02:21:05;;;;;;;6.97;4.13;;;;;;;;;;5031268;28;20021;-68
2024/01/20 02:23:36;;;;;;;7.30;3.93;;;;;;;;;;5033540;28;20026;-67
2024/01/20 02:26:02;;;;;;;10.52;4.78;;;;;;;;;;5033531;28;20030;-69
2024/01/20 02:28:29;;;;;;;9.80;4.73;;;;;;;;;;5033590;28;20036;-67
2024/01/20 02:30:55;;;;;;;7.93;4.67;;;;;;;;;;5033089;28;20030;-67
2024/01/20 02:33:21;;;;;;;9.50;5.03;;;;;;;;;;5031942;28;20033;-66
2024/01/20 02:35:46;;;;;;;11.10;4.33;;;;;;;;;;5031902;28;20583;-67
2024/01/20 02:38:12;;;;;;;12.13;4.80;;;;;;;;;;5031716;28;20487;-68
2024/01/20 02:40:38;;;;;;;10.60;4.57;;;;;;;;;;5031575;28;20509;-68
2024/01/20 02:43:04;;;;;;;15.17;5.77;;;;;;;;;;5033373;28;20049;-67
2024/01/20 02:45:30;;;;;;;9.33;4.00;;;;;;;;;;5031395;28;20049;-66
2024/01/20 02:47:57;;;;;;;9.70;4.47;;;;;;;;;;5031570;28;20572;-66
2024/01/20 02:50:23;;;;;;;8.07;4.27;;;;;;;;;;5031280;28;20029;-69
2024/01/20 02:52:52;;;;;;;12.23;4.20;;;;;;;;;;5031534;28;20524;-68
2024/01/20 02:55:19;;;;;;;7.70;3.80;;;;;;;;;;5032839;28;20021;-67
2024/01/20 02:57:45;;;;;;;10.93;4.23;;;;;;;;;;5030970;28;20308;-68
2024/01/20 03:00:11;;;;;;;15.87;5.10;;;;;;;;;;5031322;28;20414;-67
2024/01/20 03:02:37;;;;;;;12.57;4.60;;;;;;;;;;5031419;28;20029;-67
2024/01/20 03:05:03;;;;;;;8.43;3.70;;;;;;;;;;5031359;28;20032;-67
2024/01/20 03:07:30;;;;;;;5.83;3.40;;;;;;;;;;5031269;28;20026;-69
2024/01/20 03:09:56;;;;;;;9.63;4.00;;;;;;;;;;5031563;28;20483;-67
2024/01/20 03:12:21;;;;;;;6.10;3.87;;;;;;;;;;5031768;28;20125;-67
2024/01/20 03:14:47;;;;;;;12.90;5.20;;;;;;;;;;5032843;28;20022;-67
2024/01/20 03:17:13;;;;;;;9.40;4.47;;;;;;;;;;5030957;28;20497;-67
2024/01/20 03:19:38;;;;;;;9.53;4.43;;;;;;;;;;5030626;28;20048;-67
2024/01/20 03:22:04;;;;;;;7.83;5.23;;;;;;;;;;5032164;28;20029;-68
2024/01/20 03:24:31;;;;;;;8.70;4.83;;;;;;;;;;5030486;28;20079;-68
2024/01/20 03:27:00;;;;;;;6.07;4.10;;;;;;;;;;5030636;28;20029;-67
2024/01/20 03:29:25;;;;;;;10.63;5.23;;;;;;;;;;5014181;28;20397;-67
2024/01/20 03:31:51;;;;;;;10.80;4.30;;;;;;;;;;5030644;28;20028;-67
2024/01/20 03:34:17;;;;;;;21.90;5.83;;;;;;;;;;5029363;28;20128;-68
2024/01/20 03:36:43;;;;;;;11.07;5.13;;;;;;;;;;5030143;28;20033;-68
2024/01/20 03:39:09;;;;;;;7.07;4.67;;;;;;;;;;5030699;28;20108;-68
2024/01/20 03:41:35;;;;;;;11.93;4.90;;;;;;;;;;5030294;28;20026;-67
2024/01/20 03:44:01;;;;;;;10.27;4.87;;;;;;;;;;5030597;28;20328;-67
2024/01/20 03:46:26;;;;;;;10.37;4.63;;;;;;;;;;5030613;28;20022;-68
2024/01/20 03:48:52;;;;;;;10.23;4.57;;;;;;;;;;5030358;28;20060;-66
2024/01/20 03:51:21;;;;;;;8.43;5.27;;;;;;;;;;5030230;28;20544;-67
2024/01/20 03:53:46;;;;;;;15.07;4.20;;;;;;;;;;5031289;28;20088;-69
2024/01/20 03:56:12;;;;;;;9.83;4.37;;;;;;;;;;5030270;28;20033;-67
2024/01/20 03:58:38;;;;;;;8.10;4.30;;;;;;;;;;5029907;28;20064;-67
2024/01/20 04:01:04;;;;;;;9.50;4.47;;;;;;;;;;5031959;28;20107;-68
2024/01/20 04:03:30;;;;;;;9.27;4.60;;;;;;;;;;5031461;28;20033;-67
2024/01/20 04:05:56;;;;;;;8.30;4.57;;;;;;;;;;5029812;28;20124;-68
2024/01/20 04:08:23;;;;;;;9.30;4.23;;;;;;;;;;5030180;28;20112;-67
2024/01/20 04:10:52;;;;;;;9.30;5.03;;;;;;;;;;5029907;28;20025;-69
2024/01/20 04:13:18;;;;;;;9.63;4.27;;;;;;;;;;5029726;28;20033;-67
2024/01/20 04:15:44;;;;;;;9.87;4.97;;;;;;;;;;5031125;28;20112;-69
2024/01/20 04:18:10;;;;;;;10.47;4.67;;;;;;;;;;5031382;28;20099;-68
2024/01/20 04:20:36;;;;;;;12.43;4.37;;;;;;;;;;5029719;28;20474;-67
2024/01/20 04:23:01;;;;;;;8.93;4.37;;;;;;;;;;5029580;28;20516;-68
2024/01/20 04:25:27;;;;;;;9.33;5.23;;;;;;;;;;5030914;28;20386;-67
2024/01/20 04:27:53;;;;;;;6.90;4.10;;;;;;;;;;5029654;28;20491;-68
2024/01/20 04:30:19;;;;;;;11.77;4.90;;;;;;;;;;5030056;28;20489;-69
2024/01/20 04:32:44;;;;;;;12.20;4.70;;;;;;;;;;5030785;28;20492;-67
2024/01/20 04:35:10;;;;;;;9.63;4.83;;;;;;;;;;5031114;28;20031;-67
2024/01/20 04:37:38;;;;;;;10.80;4.93;;;;;;;;;;5029497;28;20036;-67
2024/01/20 04:40:05;;;;;;;8.17;5.10;;;;;;;;;;5029478;28;20083;-73
2024/01/20 04:42:30;;;;;;;8.27;4.37;;;;;;;;;;5029409;28;20033;-69
2024/01/20 04:44:56;;;;;;;24.70;7.10;;;;;;;;;;5029312;28;20508;-68
2024/01/20 04:47:22;;;;;;;6.30;3.80;;;;;;;;;;5031634;28;20440;-67
2024/01/20 04:49:51;;;;;;;9.97;4.80;;;;;;;;;;5029357;28;20392;-68
2024/01/20 04:52:18;;;;;;;12.73;4.70;;;;;;;;;;5029898;28;20684;-66
2024/01/20 04:54:44;;;;;;;8.33;4.57;;;;;;;;;;5029166;28;20112;-69
2024/01/20 04:57:10;;;;;;;9.27;4.97;;;;;;;;;;5028877;28;20085;-67
2024/01/20 04:59:35;;;;;;;9.13;5.10;;;;;;;;;;5030443;28;20072;-69
2024/01/20 05:02:02;;;;;;;10.13;4.97;;;;;;;;;;5030001;28;20029;-68
2024/01/20 05:04:27;;;;;;;12.87;5.00;;;;;;;;;;5030354;28;20036;-70
2024/01/20 05:06:53;;;;;;;7.73;4.00;;;;;;;;;;5031389;28;20033;-67
2024/01/20 05:09:19;;;;;;;6.93;4.10;;;;;;;;;;5029258;28;20025;-67
2024/01/20 05:11:45;;;;;;;11.83;4.70;;;;;;;;;;5029208;28;20048;-69
2024/01/20 05:14:11;;;;;;;11.87;4.73;;;;;;;;;;5030966;28;20116;-68
2024/01/20 05:16:37;;;;;;;10.00;4.40;;;;;;;;;;5029304;28;20098;-69
2024/01/20 05:19:03;;;;;;;11.87;4.60;;;;;;;;;;5013332;28;20038;-68
2024/01/20 05:21:30;;;;;;;8.63;4.83;;;;;;;;;;5032864;28;20086;-69
2024/01/20 05:23:57;;;;;;;9.90;5.37;;;;;;;;;;5031279;28;20038;-68
2024/01/20 05:26:23;;;;;;;8.20;4.70;;;;;;;;;;5029594;28;20039;-68
2024/01/20 05:28:49;;;;;;;10.47;5.20;;;;;;;;;;5013028;28;20038;-72
2024/01/20 05:31:15;;;;;;;11.47;5.17;;;;;;;;;;5029240;28;20095;-67
2024/01/20 05:33:41;;;;;;;9.63;4.80;;;;;;;;;;5029094;28;20029;-68
2024/01/20 05:36:12;;;;;;;6.40;4.20;;;;;;;;;;5030516;28;20039;-70
2024/01/20 05:38:39;;;;;;;8.80;4.32;;;;;;;;;;5029343;28;20080;-67
2024/01/20 05:41:05;;;;;;;9.07;4.90;;;;;;;;;;5029055;28;20029;-67
2024/01/20 05:43:31;;;;;;;6.03;4.33;;;;;;;;;;5030539;28;20056;-68
2024/01/20 05:45:57;;;;;;;7.07;3.70;;;;;;;;;;5028846;28;20430;-69
2024/01/20 05:48:23;;;;;;;5.50;3.33;;;;;;;;;;5030550;28;20030;-66
2024/01/20 05:50:49;;;;;;;9.77;4.17;;;;;;;;;;5028775;28;20033;-65
2024/01/20 05:53:15;;;;;;;8.17;3.93;;;;;;;;;;5029311;28;20029;-67
2024/01/20 05:55:41;;;;;;;9.13;4.53;;;;;;;;;;5030336;28;20064;-66
2024/01/20 05:58:07;;;;;;;4.23;3.23;;;;;;;;;;5031873;28;20045;-68
2024/01/20 06:00:33;;;;;;;9.50;4.53;;;;;;;;;;5033380;28;20079;-67
2024/01/20 06:02:59;;;;;;;16.73;5.30;;;;;;;;;;5033748;28;20039;-69
2024/01/20 06:05:25;;;;;;;6.53;4.10;;;;;;;;;;5033685;28;20488;-66
2024/01/20 06:07:51;;;;;;;7.27;4.30;;;;;;;;;;5033580;28;20362;-67
2024/01/20 06:10:16;;;;;;;8.57;4.37;;;;;;;;;;5034973;28;20018;-68
2024/01/20 06:12:42;;;;;;;5.90;4.37;;;;;;;;;;5033591;28;20025;-68
2024/01/20 06:15:09;;;;;;;7.30;3.50;;;;;;;;;;5033165;28;20312;-68
2024/01/20 06:17:35;;;;;;;13.17;5.20;;;;;;;;;;5034774;28;20032;-69
2024/01/20 06:20:01;;;;;;;8.37;3.97;;;;;;;;;;5034966;28;20017;-68
2024/01/20 06:22:27;;;;;;;12.63;4.80;;;;;;;;;;5032983;28;20389;-71
2024/01/20 06:24:52;;;;;;;13.93;4.80;;;;;;;;;;5034896;28;20035;-66
2024/01/20 06:27:18;;;;;;;11.07;4.53;;;;;;;;;;5035642;28;20060;-67
2024/01/20 06:29:44;;;;;;;7.60;4.77;;;;;;;;;;5036027;28;20018;-67
2024/01/20 06:32:10;;;;;;;8.67;4.70;;;;;;;;;;5032957;28;20048;-67
2024/01/20 06:34:36;;;;;;;7.47;4.37;;;;;;;;;;5034021;28;20076;-67
2024/01/20 06:37:03;;;;;;;6.13;4.10;;;;;;;;;;5032556;28;20026;-68
2024/01/20 06:39:29;;;;;;;8.67;5.33;;;;;;;;;;5032389;28;20025;-70
2024/01/20 06:41:55;;;;;;;6.47;4.30;;;;;;;;;;5033617;28;20480;-69
2024/01/20 06:44:22;;;;;;;10.47;4.97;;;;;;;;;;5032029;28;20079;-68
2024/01/20 06:46:48;;;;;;;5.57;3.87;;;;;;;;;;5032227;28;20072;-69
2024/01/20 06:49:14;;;;;;;7.83;5.20;;;;;;;;;;5033170;28;20053;-67
2024/01/20 06:51:43;;;;;;;9.17;5.37;;;;;;;;;;5033010;28;20088;-68
2024/01/20 06:54:08;;;;;;;6.70;4.37;;;;;;;;;;5031870;28;20025;-67
2024/01/20 06:56:35;;;;;;;10.40;4.73;;;;;;;;;;5033378;28;20075;-70
2024/01/20 06:59:00;;;;;;;10.17;6.10;;;;;;;;;;5032253;28;20045;-68
2024/01/20 07:01:26;;;;;;;11.47;4.80;;;;;;;;;;5032431;28;20017;-66
2024/01/20 07:03:52;;;;;;;6.53;4.43;;;;;;;;;;5031021;28;20732;-68
2024/01/20 07:06:23;;;;;;;9.47;4.63;;;;;;;;;;5031168;28;20378;-67
2024/01/20 07:08:49;;;;;;;12.33;4.70;;;;;;;;;;5029533;28;20029;-66
2024/01/20 07:11:14;;;;;;;10.50;5.13;;;;;;;;;;5030946;28;20033;-67
2024/01/20 07:13:42;;;;;;;9.33;4.30;;;;;;;;;;5030939;28;20516;-70
2024/01/20 07:16:12;;;;;;;7.80;4.57;;;;;;;;;;5030931;28;20072;-69
2024/01/20 07:18:38;;;;;;;6.23;4.00;;;;;;;;;;5031991;28;20036;-67
2024/01/20 07:21:06;;;;;;;11.30;4.57;;;;;;;;;;5030550;28;20049;-69
2024/01/20 07:23:32;;;;;;;10.17;4.77;;;;;;;;;;5032445;28;20029;-67
2024/01/20 07:25:58;;;;;;;9.13;4.53;;;;;;;;;;5030532;28;20481;-68
2024/01/20 07:28:25;;;;;;;7.53;4.73;;;;;;;;;;5014257;28;20026;-67
2024/01/20 07:30:51;;;;;;;9.10;4.70;;;;;;;;;;5030800;28;20029;-67
2024/01/20 07:33:16;;;;;;;9.73;4.93;;;;;;;;;;5030633;28;20543;-67
2024/01/20 07:35:42;;;;;;;8.43;5.03;;;;;;;;;;5030399;28;20033;-67
2024/01/20 07:38:07;;;;;;;11.20;5.53;;;;;;;;;;5031294;28;20525;-70
2024/01/20 07:40:33;;;;;;;9.93;5.47;;;;;;;;;;5032009;28;20393;-68
2024/01/20 07:42:58;;;;;;;12.70;6.00;;;;;;;;;;5030399;28;20064;-69
2024/01/20 07:45:26;;;;;;;11.57;4.80;;;;;;;;;;5032042;28;20101;-68
2024/01/20 07:47:52;;;;;;;9.13;5.47;;;;;;;;;;5030318;28;20112;-67
2024/01/20 07:50:18;;;;;;;11.37;6.23;;;;;;;;;;5014009;28;20180;-66
2024/01/20 07:52:44;;;;;;;7.33;4.40;;;;;;;;;;5030352;28;20034;-67
2024/01/20 07:55:09;;;;;;;13.13;5.03;;;;;;;;;;5013894;28;20120;-66
2024/01/20 07:57:35;;;;;;;5.40;4.37;;;;;;;;;;5030406;28;20060;-68
2024/01/20 08:00:04;;;;;;;12.17;5.57;;;;;;;;;;5030867;28;20378;-69
2024/01/20 08:02:30;;;;;;;11.03;5.40;;;;;;;;;;5031725;28;20033;-69
2024/01/20 08:04:56;;;;;;;10.97;5.93;;;;;;;;;;5029690;28;20037;-67
2024/01/20 08:07:21;;;;;;;11.30;5.43;;;;;;;;;;5029533;28;20477;-68
2024/01/20 08:09:47;;;;;;;7.63;4.97;;;;;;;;;;5029668;28;20033;-71
2024/01/20 08:12:13;;;;;;;13.83;6.07;;;;;;;;;;5031695;28;20087;-69
2024/01/20 08:14:38;;;;;;;9.20;5.90;;;;;;;;;;5031269;28;20048;-70
2024/01/20 08:17:04;;;;;;;13.13;5.73;;;;;;;;;;5030769;28;20482;-67
2024/01/20 08:19:31;;;;;;;10.00;5.83;;;;;;;;;;5031673;28;20052;-67
2024/01/20 08:21:57;;;;;;;8.60;5.33;;;;;;;;;;5031315;28;20116;-69
2024/01/20 08:24:22;;;;;;;12.00;5.33;;;;;;;;;;5031058;28;20037;-69
2024/01/20 08:26:49;;;;;;;10.93;5.20;;;;;;;;;;5030842;28;20033;-69
2024/01/20 08:29:17;;;;;;;10.53;5.87;;;;;;;;;;5030854;28;20036;-71
2024/01/20 08:31:42;;;;;;;10.13;4.93;;;;;;;;;;5029582;28;20129;-68
2024/01/20 08:34:08;;;;;;;8.30;4.70;;;;;;;;;;5029319;28;20473;-70
2024/01/20 08:36:35;;;;;;;9.83;5.10;;;;;;;;;;5030608;28;20118;-71
2024/01/20 08:39:01;;;;;;;9.00;5.30;;;;;;;;;;5012830;28;20033;-69
2024/01/20 08:41:26;;;;;;;8.00;5.13;;;;;;;;;;5030213;28;20174;-66
2024/01/20 08:43:52;;;;;;;10.63;5.10;;;;;;;;;;5032224;28;20030;-71
2024/01/20 08:46:17;;;;;;;12.33;5.53;;;;;;;;;;5030375;28;20513;-69
2024/01/20 08:48:44;;;;;;;10.27;5.63;;;;;;;;;;5028858;28;20056;-69
2024/01/20 08:51:09;;;;;;;8.77;5.40;;;;;;;;;;5029085;28;20385;-69
2024/01/20 08:53:35;;;;;;;8.27;4.47;;;;;;;;;;5030312;28;20040;-68
2024/01/20 08:56:03;;;;;;;8.03;5.07;;;;;;;;;;5030401;28;20037;-69
2024/01/20 08:58:29;;;;;;;10.20;5.73;;;;;;;;;;5013009;28;20186;-69
2024/01/20 09:00:57;;;;;;;10.20;4.03;;;;;;;;;;5012746;28;20133;-66
2024/01/20 09:03:23;;;;;;;11.13;4.80;;;;;;;;;;5029437;28;20038;-69
2024/01/20 09:05:51;;;;;;;12.77;4.90;;;;;;;;;;5030570;28;20362;-67
2024/01/20 09:08:17;;;;;;;10.30;5.07;;;;;;;;;;5031686;28;20029;-72
2024/01/20 09:10:42;;;;;;;11.77;5.47;;;;;;;;;;5031863;28;20060;-69
2024/01/20 09:13:08;;;;;;;9.37;5.93;;;;;;;;;;5030574;28;20033;-70
2024/01/20 09:15:36;;;;;;;8.97;5.07;;;;;;;;;;5029562;28;20484;-71
2024/01/20 09:18:02;;;;;;;8.63;5.57;;;;;;;;;;5028926;28;20033;-69
2024/01/20 09:20:27;;;;;;;10.23;5.03;;;;;;;;;;5030039;28;20029;-69
2024/01/20 09:22:53;;;;;;;5.57;3.90;;;;;;;;;;5030011;28;20547;-69
2024/01/20 09:25:19;;;;;;;9.77;5.17;;;;;;;;;;5028818;28;20121;-68
2024/01/20 09:27:44;;;;;;;10.57;6.00;;;;;;;;;;5028861;28;20397;-71
2024/01/20 09:30:10;;;;;;;10.50;4.73;;;;;;;;;;5028744;28;20320;-69
2024/01/20 09:32:36;;;;;;;11.90;5.03;;;;;;;;;;5027726;28;20040;-67
2024/01/20 09:35:03;;;;;;;9.07;5.70;;;;;;;;;;5030402;28;20041;-69
2024/01/20 09:37:29;;;;;;;9.50;5.07;;;;;;;;;;5029919;28;20045;-68
2024/01/20 09:39:57;;;;;;;7.20;4.40;;;;;;;;;;5029810;28;20022;-68
2024/01/20 09:42:23;;;;;;;5.87;4.10;;;;;;;;;;5028278;28;20399;-70
2024/01/20 09:44:53;;;;;;;8.90;4.90;;;;;;;;;;5029882;28;20045;-67
2024/01/20 09:47:18;;;;;;;9.03;4.97;;;;;;;;;;5025528;28;20451;-68
2024/01/20 09:49:44;;;;;;;13.10;5.90;;;;;;;;;;5028713;28;20116;-68
2024/01/20 09:52:16;;;;;;;11.67;4.60;;;;;;;;;;5028408;28;20114;-69
2024/01/20 09:54:56;;;;;;;11.98;6.32;;;;;;;;;;5028762;28;20367;-70
2024/01/20 09:57:23;;;;;;;6.57;4.67;;;;;;;;;;5027873;28;20496;-73
2024/01/20 09:59:51;;;;;;;14.63;6.23;;;;;;;;;;5012325;28;20029;-69
2024/01/20 10:02:20;;;;;;;14.03;6.00;;;;;;;;;;5029743;28;20473;-70
2024/01/20 10:04:48;;;;;;;14.37;6.33;;;;;;;;;;5028647;28;20468;-68
2024/01/20 10:07:28;;;;;;;12.53;5.50;;;;;;;;;;5028349;28;20025;-70
2024/01/20 10:09:53;;;;;;;11.97;6.53;;;;;;;;;;5028427;28;20025;-71
2024/01/20 10:12:19;;;;;;;9.07;5.17;;;;;;;;;;5028594;28;20036;-69
2024/01/20 10:14:44;;;;;;;15.40;5.43;;;;;;;;;;5029835;28;20535;-69
2024/01/20 10:17:10;;;;;;;10.50;5.70;;;;;;;;;;5029323;28;20029;-68
2024/01/20 10:19:37;;;;;;;16.20;6.27;;;;;;;;;;5030518;28;20477;-69
2024/01/20 10:22:08;;;;;;;10.73;5.97;;;;;;;;;;5029826;28;20036;-69
2024/01/20 10:24:33;;;;;;;13.87;5.93;;;;;;;;;;5011926;28;20397;-70
2024/01/20 10:26:59;;;;;;;9.70;5.93;;;;;;;;;;5029399;28;20038;-71
2024/01/20 10:29:26;;;;;;;18.70;6.47;;;;;;;;;;5031662;28;20071;-70
2024/01/20 10:31:53;;;;;;;11.30;6.80;;;;;;;;;;5032638;28;20021;-69
2024/01/20 10:34:20;;;;;;;13.33;5.50;;;;;;;;;;5033956;28;20075;-71
2024/01/20 10:36:52;;;;;;;12.80;6.83;;;;;;;;;;5032013;28;20033;-72
2024/01/20 10:39:20;;;;;;;11.43;5.80;;;;;;;;;;5028464;28;20032;-68
2024/01/20 10:41:50;;;;;;;13.93;6.07;;;;;;;;;;5028110;28;20092;-70
2024/01/20 10:44:24;;;;;;;9.40;6.23;;;;;;;;;;5029965;28;20033;-68
2024/01/20 10:46:53;;;;;;;11.40;6.03;;;;;;;;;;5032919;28;20059;-69
2024/01/20 10:49:24;;;;;;;15.03;6.53;;;;;;;;;;5031502;28;20037;-71
2024/01/20 10:51:50;;;;;;;17.57;6.30;;;;;;;;;;5032842;28;20036;-71
2024/01/20 10:54:17;;;;;;;11.47;5.77;;;;;;;;;;5031803;28;20036;-71
2024/01/20 10:56:44;;;;;;;10.50;5.53;;;;;;;;;;5032985;28;20037;-68
2024/01/20 10:59:12;;;;;;;15.13;5.67;;;;;;;;;;5031238;28;20523;-67
2024/01/20 11:01:40;;;;;;;10.97;5.60;;;;;;;;;;5032810;28;20060;-68
2024/01/20 11:04:07;;;;;;;9.87;5.77;;;;;;;;;;5033005;28;20060;-69
2024/01/20 11:06:35;;;;;;;16.63;6.00;;;;;;;;;;5015387;28;20044;-67
2024/01/20 11:09:01;;;;;;;13.87;7.00;;;;;;;;;;5030934;28;20493;-69
2024/01/20 11:11:28;;;;;;;13.23;5.97;;;;;;;;;;5030851;28;20044;-69
2024/01/20 11:14:00;;;;;;;11.63;5.57;;;;;;;;;;5032471;28;20484;-68
2024/01/20 11:16:32;;;;;;;;;;;;;;;;;;5031144;28;20032;-70
2024/01/20 11:19:11;;;;;;;12.68;5.50;;;;;;;;;;5032567;28;19916;-68
2024/01/20 11:21:37;;;;;;;15.20;6.20;;;;;;;;;;5030951;28;20049;-69
2024/01/20 11:24:05;;;;;;;11.87;6.77;;;;;;;;;;5031940;28;20033;-68
2024/01/20 11:26:33;;;;;;;13.53;6.27;;;;;;;;;;5030637;28;20070;-69
2024/01/20 11:29:00;;;;;;;10.70;5.37;;;;;;;;;;5030444;28;20033;-69
2024/01/20 11:31:30;;;;;;;18.97;6.80;;;;;;;;;;5030896;28;20025;-69
2024/01/20 11:34:04;;;;;;;11.33;5.50;;;;;;;;;;5031878;28;20025;-69
2024/01/20 11:36:30;;;;;;;10.83;6.27;;;;;;;;;;5032091;28;20023;-69
2024/01/20 11:38:57;;;;;;;14.47;6.03;;;;;;;;;;5031952;28;20114;-69
2024/01/20 11:41:23;;;;;;;17.20;6.17;;;;;;;;;;5030343;28;20489;-67
2024/01/20 11:43:49;;;;;;;11.60;4.93;;;;;;;;;;5031525;28;20036;-70
2024/01/20 11:46:15;;;;;;;10.60;6.03;;;;;;;;;;5030019;28;20393;-69
2024/01/20 11:48:46;;;;;;;11.00;5.70;;;;;;;;;;5031924;28;20044;-69
2024/01/20 11:51:13;;;;;;;15.80;6.10;;;;;;;;;;5014822;28;20026;-69
2024/01/20 11:53:39;;;;;;;13.60;5.53;;;;;;;;;;5032213;28;20098;-69
2024/01/20 11:56:05;;;;;;;8.50;5.20;;;;;;;;;;5029229;28;20477;-68
2024/01/20 11:58:31;;;;;;;11.27;5.47;;;;;;;;;;5031728;28;20498;-71
2024/01/20 12:00:58;;;;;;;9.63;5.23;;;;;;;;;;5031922;28;20035;-69
2024/01/20 12:03:27;;;;;;;13.30;5.40;;;;;;;;;;5030741;28;20428;-68
2024/01/20 12:05:53;;;;;;;9.60;5.67;;;;;;;;;;5030500;28;20095;-70
2024/01/20 12:08:19;;;;;;;9.50;4.90;;;;;;;;;;5030526;28;20362;-69
2024/01/20 12:10:50;;;;;;;8.17;4.87;;;;;;;;;;5013802;28;20453;-69
2024/01/20 12:13:16;;;;;;;9.20;4.53;;;;;;;;;;5014174;28;20120;-70
2024/01/20 12:15:42;;;;;;;12.93;6.10;;;;;;;;;;5030257;28;20338;-69
2024/01/20 12:18:09;;;;;;;8.60;4.17;;;;;;;;;;5032723;28;20033;-70
2024/01/20 12:20:38;;;;;;;8.93;5.00;;;;;;;;;;5032783;28;20033;-70
2024/01/20 12:23:04;;;;;;;10.33;5.30;;;;;;;;;;5030423;28;20055;-68
2024/01/20 12:25:30;;;;;;;14.07;6.13;;;;;;;;;;5030057;28;20078;-71
2024/01/20 12:28:02;;;;;;;9.07;4.33;;;;;;;;;;5030591;28;20502;-70
2024/01/20 12:30:28;;;;;;;12.93;5.80;;;;;;;;;;5030196;28;20022;-69
2024/01/20 12:32:55;;;;;;;13.60;4.93;;;;;;;;;;5031043;28;20108;-70
2024/01/20 12:35:21;;;;;;;12.93;5.67;;;;;;;;;;5029100;28;20029;-68
2024/01/20 12:37:48;;;;;;;9.20;5.07;;;;;;;;;;5029513;28;20029;-67
2024/01/20 12:40:15;;;;;;;9.37;4.87;;;;;;;;;;5029423;28;20026;-69
2024/01/20 12:42:42;;;;;;;10.47;4.67;;;;;;;;;;5029441;28;20049;-70
2024/01/20 12:45:11;;;;;;;12.90;4.50;;;;;;;;;;5029145;28;20025;-69
2024/01/20 12:47:39;;;;;;;14.77;5.17;;;;;;;;;;5031037;28;20110;-70
2024/01/20 12:50:05;;;;;;;8.93;5.10;;;;;;;;;;5028929;28;20063;-71
2024/01/20 12:52:31;;;;;;;11.43;5.17;;;;;;;;;;5029134;28;20075;-70
2024/01/20 12:54:58;;;;;;;11.03;5.30;;;;;;;;;;5030663;28;20021;-68
2024/01/20 12:57:24;;;;;;;8.10;4.43;;;;;;;;;;5030349;28;20490;-70
2024/01/20 12:59:51;;;;;;;8.20;4.37;;;;;;;;;;5029158;28;20055;-70
2024/01/20 13:02:17;;;;;;;9.57;4.27;;;;;;;;;;5028969;28;20033;-72
2024/01/20 13:04:43;;;;;;;11.30;4.53;;;;;;;;;;5028941;28;20420;-70
2024/01/20 13:07:09;;;;;;;7.57;4.43;;;;;;;;;;5029885;28;20523;-69
2024/01/20 13:09:36;;;;;;;7.83;3.93;;;;;;;;;;5030951;28;20021;-68
2024/01/20 13:12:02;;;;;;;6.93;4.60;;;;;;;;;;5030419;28;20486;-72
2024/01/20 13:14:28;;;;;;;9.40;5.13;;;;;;;;;;5031702;28;20025;-68
2024/01/20 13:16:53;;;;;;;12.23;6.67;;;;;;;;;;5029644;28;20363;-68
2024/01/20 13:19:20;;;;;;;9.20;4.60;;;;;;;;;;5029775;28;20041;-70
2024/01/20 13:21:48;;;;;;;6.97;4.30;;;;;;;;;;5030296;28;20029;-69
2024/01/20 13:24:14;;;;;;;7.93;4.50;;;;;;;;;;5029071;28;20029;-69
2024/01/20 13:26:40;;;;;;;12.77;5.33;;;;;;;;;;5028850;28;20021;-70
2024/01/20 13:29:05;;;;;;;14.27;6.87;;;;;;;;;;5029167;28;20026;-70
2024/01/20 13:31:34;;;;;;;11.00;5.03;;;;;;;;;;5029128;28;20029;-69
2024/01/20 13:34:01;;;;;;;10.70;5.10;;;;;;;;;;5013050;28;20471;-71
2024/01/20 13:36:26;;;;;;;12.07;5.33;;;;;;;;;;5028632;28;20051;-69
2024/01/20 13:38:52;;;;;;;11.07;5.57;;;;;;;;;;5029135;28;20469;-70
2024/01/20 13:41:18;;;;;;;12.57;5.37;;;;;;;;;;5029885;28;20033;-71
2024/01/20 13:43:43;;;;;;;6.33;4.60;;;;;;;;;;5030235;28;20268;-72
2024/01/20 13:46:10;;;;;;;21.23;5.93;;;;;;;;;;5029522;28;20572;-69
2024/01/20 13:48:35;;;;;;;14.57;5.53;;;;;;;;;;5029947;28;20029;-70
2024/01/20 13:51:01;;;;;;;15.77;4.83;;;;;;;;;;5028386;28;20033;-69
2024/01/20 13:53:26;;;;;;;10.67;4.83;;;;;;;;;;5028969;28;20029;-70
2024/01/20 13:55:52;;;;;;;9.07;5.47;;;;;;;;;;5028525;28;20022;-70
2024/01/20 13:58:18;;;;;;;8.07;4.73;;;;;;;;;;5028324;28;20052;-71
2024/01/20 14:00:46;;;;;;;10.10;4.97;;;;;;;;;;5012755;28;20040;-70
2024/01/20 14:03:12;;;;;;;14.40;5.37;;;;;;;;;;5012123;28;20041;-70
2024/01/20 14:05:38;;;;;;;12.30;4.60;;;;;;;;;;5028705;28;20026;-68
2024/01/20 14:08:04;;;;;;;7.10;4.37;;;;;;;;;;5030147;28;20021;-69
2024/01/20 14:10:30;;;;;;;8.93;5.17;;;;;;;;;;5029574;28;20034;-70
2024/01/20 14:12:55;;;;;;;11.83;4.73;;;;;;;;;;4995808;28;20537;-69
2024/01/20 14:15:21;;;;;;;15.47;5.37;;;;;;;;;;5028175;28;20109;-70
2024/01/20 14:17:47;;;;;;;9.33;4.60;;;;;;;;;;5030158;28;20377;-69
2024/01/20 14:20:13;;;;;;;20.43;5.67;;;;;;;;;;5035766;28;20079;-69
2024/01/20 14:22:40;;;;;;;19.13;5.80;;;;;;;;;;5036479;28;20025;-69
2024/01/20 14:25:06;;;;;;;14.50;6.43;;;;;;;;;;5035595;28;20111;-69
2024/01/20 14:27:33;;;;;;;11.97;5.30;;;;;;;;;;5034227;28;20481;-68
2024/01/20 14:29:58;;;;;;;12.87;5.40;;;;;;;;;;5032534;28;20018;-69
2024/01/20 14:32:24;;;;;;;10.47;5.13;;;;;;;;;;5032175;28;20036;-69